createdAt,value
2022-08-09T00:00:04.709Z,21.96
2022-08-09T00:02:34.074Z,21.95
2022-08-09T00:06:15.367Z,21.95
2022-08-09T00:07:49.065Z,21.91
2022-08-09T00:10:18.212Z,21.90
2022-08-09T00:12:52.652Z,21.87
2022-08-09T00:15:26.538Z,21.84
2022-08-09T00:18:11.478Z,21.81
2022-08-09T00:20:42.397Z,21.80
2022-08-09T00:23:56.143Z,21.79
2022-08-09T00:26:05.145Z,21.78
2022-08-09T00:28:34.755Z,21.75
2022-08-09T00:31:09.110Z,21.74
2022-08-09T00:33:52.010Z,21.71
2022-08-09T00:36:19.764Z,21.68
2022-08-09T00:38:46.688Z,21.64
2022-08-09T00:44:11.191Z,21.57
2022-08-09T00:44:14.338Z,21.61
2022-08-09T00:46:57.278Z,21.54
2022-08-09T00:49:31.844Z,21.51
2022-08-09T00:52:02.197Z,21.49
2022-08-09T00:54:36.208Z,21.47
2022-08-09T00:57:10.444Z,21.43
2022-08-09T00:59:46.207Z,21.44
2022-08-09T01:02:20.502Z,21.43
2022-08-09T01:05:13.930Z,21.40
2022-08-09T01:08:01.005Z,21.40
2022-08-09T01:10:35.754Z,21.40
2022-08-09T01:13:11.846Z,21.37
2022-08-09T01:15:52.425Z,21.34
2022-08-09T01:18:31.355Z,21.31
2022-08-09T01:21:17.306Z,21.29
2022-08-09T01:24:14.370Z,21.25
2022-08-09T01:27:05.552Z,21.23
2022-08-09T01:30:02.334Z,21.18
2022-08-09T01:32:50.770Z,21.15
2022-08-09T01:35:38.552Z,21.13
2022-08-09T01:38:15.579Z,21.11
2022-08-09T01:40:52.752Z,21.08
2022-08-09T01:43:32.544Z,21.04
2022-08-09T01:46:26.785Z,21.01
2022-08-09T01:48:59.969Z,21.02
2022-08-09T01:51:42.794Z,20.98
2022-08-09T01:54:12.128Z,20.95
2022-08-09T01:56:42.164Z,20.93
2022-08-09T01:59:17.771Z,20.92
2022-08-09T02:01:59.726Z,20.90
2022-08-09T02:04:29.682Z,20.88
2022-08-09T02:07:18.415Z,20.87
2022-08-09T02:10:04.713Z,20.83
2022-08-09T02:12:33.642Z,20.81
2022-08-09T02:15:02.246Z,20.79
2022-08-09T02:18:00.200Z,20.79
2022-08-09T02:20:26.581Z,20.78
2022-08-09T02:23:03.818Z,20.76
2022-08-09T02:25:42.533Z,20.75
2022-08-09T02:28:39.812Z,20.72
2022-08-09T02:31:18.908Z,20.69
2022-08-09T02:34:06.897Z,20.67
2022-08-09T02:36:42.218Z,20.63
2022-08-09T02:39:20.113Z,20.60
2022-08-09T02:42:05.635Z,20.59
2022-08-09T02:44:40.324Z,20.58
2022-08-09T02:47:11.501Z,20.56
2022-08-09T02:50:01.132Z,20.55
2022-08-09T02:52:35.728Z,20.56
2022-08-09T02:55:20.623Z,20.56
2022-08-09T02:58:00.683Z,20.54
2022-08-09T03:00:39.547Z,20.54
2022-08-09T03:04:13.137Z,20.52
2022-08-09T03:06:14.891Z,20.47
2022-08-09T03:08:46.433Z,20.42
2022-08-09T03:12:06.693Z,20.39
2022-08-09T03:14:10.110Z,20.37
2022-08-09T03:16:41.777Z,20.32
2022-08-09T03:19:16.597Z,20.33
2022-08-09T03:22:03.116Z,20.32
2022-08-09T03:24:42.029Z,20.30
2022-08-09T03:27:21.366Z,20.30
2022-08-09T03:29:58.017Z,20.28
2022-08-09T03:32:31.251Z,20.27
2022-08-09T03:34:59.652Z,20.28
2022-08-09T03:37:55.271Z,20.26
2022-08-09T03:40:14.447Z,20.19
2022-08-09T03:42:45.559Z,20.12
2022-08-09T03:45:13.448Z,20.09
2022-08-09T03:47:46.519Z,20.09
2022-08-09T03:50:14.151Z,20.08
2022-08-09T03:52:46.034Z,19.98
2022-08-09T03:55:14.368Z,19.99
2022-08-09T03:57:44.831Z,19.97
2022-08-09T04:00:26.228Z,19.94
2022-08-09T04:02:54.619Z,19.93
2022-08-09T04:05:27.858Z,19.94
2022-08-09T04:07:57.348Z,19.95
2022-08-09T04:10:28.891Z,19.91
2022-08-09T04:12:58.251Z,19.91
2022-08-09T04:15:39.258Z,19.91
2022-08-09T04:18:16.595Z,19.91
2022-08-09T04:20:45.789Z,19.92
2022-08-09T04:23:16.742Z,19.92
2022-08-09T04:25:43.609Z,19.92
2022-08-09T04:28:10.145Z,19.87
2022-08-09T04:30:39.105Z,19.81
2022-08-09T04:33:11.455Z,19.78
2022-08-09T04:35:42.367Z,19.79
2022-08-09T04:38:09.141Z,19.79
2022-08-09T04:40:54.268Z,19.81
2022-08-09T04:43:25.234Z,19.83
2022-08-09T04:45:54.021Z,19.84
2022-08-09T04:48:21.320Z,19.82
2022-08-09T04:50:50.536Z,19.87
2022-08-09T04:53:17.370Z,19.87
2022-08-09T04:55:58.899Z,19.87
2022-08-09T04:58:31.905Z,19.89
2022-08-09T05:01:01.339Z,19.90
2022-08-09T05:03:41.058Z,19.91
2022-08-09T05:06:26.713Z,20.09
2022-08-09T05:08:59.901Z,20.56
2022-08-09T05:11:35.424Z,21.17
2022-08-09T05:14:06.723Z,21.60
2022-08-09T05:16:43.780Z,21.87
2022-08-09T05:19:24.463Z,21.83
2022-08-09T05:21:55.984Z,21.99
2022-08-09T05:24:24.826Z,22.06
2022-08-09T05:26:52.980Z,22.12
2022-08-09T05:29:22.065Z,22.27
2022-08-09T05:31:57.667Z,22.16
2022-08-09T05:34:30.001Z,22.07
2022-08-09T05:37:01.534Z,22.08
2022-08-09T05:39:35.844Z,21.98
2022-08-09T05:42:06.326Z,21.95
2022-08-09T05:44:34.930Z,21.90
2022-08-09T05:47:05.660Z,21.77
2022-08-09T05:50:23.221Z,21.77
2022-08-09T05:52:20.400Z,21.96
2022-08-09T05:54:49.178Z,22.01
2022-08-09T05:57:17.657Z,21.98
2022-08-09T05:59:45.928Z,21.79
2022-08-09T06:02:22.205Z,21.67
2022-08-09T06:04:48.800Z,21.70
2022-08-09T06:07:21.764Z,21.91
2022-08-09T06:10:01.500Z,22.12
2022-08-09T06:12:30.143Z,22.14
2022-08-09T06:15:01.124Z,22.01
2022-08-09T06:17:39.205Z,21.96
2022-08-09T06:20:08.135Z,21.91
2022-08-09T06:22:35.415Z,21.97
2022-08-09T06:25:02.383Z,22.00
2022-08-09T06:27:42.239Z,21.93
2022-08-09T06:30:10.754Z,21.74
2022-08-09T06:33:00.708Z,21.77
2022-08-09T06:35:55.746Z,21.72
2022-08-09T06:38:16.061Z,21.77
2022-08-09T06:40:43.431Z,21.86
2022-08-09T06:43:10.515Z,21.96
2022-08-09T06:46:06.833Z,22.07
2022-08-09T06:48:30.398Z,21.99
2022-08-09T06:50:58.550Z,21.98
2022-08-09T06:53:25.166Z,21.96
2022-08-09T06:55:52.672Z,21.97
2022-08-09T06:58:40.681Z,21.98
2022-08-09T07:01:08.021Z,22.07
2022-08-09T07:03:39.620Z,22.23
2022-08-09T07:06:19.677Z,22.30
2022-08-09T07:08:46.770Z,22.36
2022-08-09T07:11:17.489Z,22.42
2022-08-09T07:14:04.214Z,22.44
2022-08-09T07:16:42.563Z,22.54
2022-08-09T07:19:22.914Z,22.66
2022-08-09T07:21:57.515Z,22.73
2022-08-09T07:24:32.266Z,22.77
2022-08-09T07:27:10.977Z,22.85
2022-08-09T07:29:57.204Z,23.02
2022-08-09T07:32:32.354Z,23.14
2022-08-09T07:35:12.045Z,23.15
2022-08-09T07:37:45.654Z,23.18
2022-08-09T07:40:18.657Z,23.24
2022-08-09T07:43:14.750Z,23.30
2022-08-09T07:45:43.565Z,23.42
2022-08-09T07:48:28.585Z,23.58
2022-08-09T07:51:09.441Z,23.77
2022-08-09T07:54:06.962Z,23.91
2022-08-09T07:56:37.029Z,24.13
2022-08-09T07:59:15.923Z,24.34
2022-08-09T08:01:58.594Z,24.56
2022-08-09T08:04:31.123Z,24.75
2022-08-09T08:07:09.203Z,24.87
2022-08-09T08:09:51.546Z,25.01
2022-08-09T08:12:27.622Z,24.97
2022-08-09T08:14:55.147Z,25.04
2022-08-09T08:17:34.986Z,25.17
2022-08-09T08:20:12.527Z,25.27
2022-08-09T08:22:40.669Z,25.41
2022-08-09T08:25:13.172Z,25.53
2022-08-09T08:27:42.995Z,25.60
2022-08-09T08:30:11.363Z,25.71
2022-08-09T08:32:41.736Z,25.77
2022-08-09T08:35:22.588Z,25.85
2022-08-09T08:37:59.522Z,25.93
2022-08-09T08:40:29.694Z,26.07
2022-08-09T08:42:58.695Z,26.15
2022-08-09T08:45:37.474Z,26.27
2022-08-09T08:48:05.769Z,26.41
2022-08-09T08:50:32.958Z,26.53
2022-08-09T08:53:02.128Z,26.60
2022-08-09T08:55:32.200Z,26.67
2022-08-09T08:57:59.209Z,26.65
2022-08-09T09:00:34.342Z,26.68
2022-08-09T09:03:12.166Z,26.79
2022-08-09T09:05:59.925Z,26.90
2022-08-09T09:08:37.875Z,26.99
2022-08-09T09:11:08.975Z,27.14
2022-08-09T09:13:55.232Z,27.18
2022-08-09T09:16:31.149Z,27.24
2022-08-09T09:19:37.319Z,27.29
2022-08-09T09:21:56.456Z,27.40
2022-08-09T09:24:30.114Z,27.47
2022-08-09T09:26:58.569Z,27.57
2022-08-09T09:29:58.106Z,27.67
2022-08-09T09:32:34.397Z,27.77
2022-08-09T09:35:10.885Z,27.97
2022-08-09T09:37:45.496Z,28.18
2022-08-09T09:40:12.428Z,28.32
2022-08-09T09:42:45.991Z,28.42
2022-08-09T09:45:14.510Z,28.37
2022-08-09T09:47:56.449Z,28.39
2022-08-09T09:50:51.020Z,28.42
2022-08-09T09:53:34.357Z,28.60
2022-08-09T09:56:19.682Z,28.78
2022-08-09T09:58:57.232Z,28.79
2022-08-09T10:01:31.278Z,28.85
2022-08-09T10:04:15.923Z,28.94
2022-08-09T10:06:52.031Z,29.08
2022-08-09T10:09:23.192Z,29.17
2022-08-09T10:12:14.692Z,29.05
2022-08-09T10:14:50.166Z,29.13
2022-08-09T10:17:38.893Z,29.26
2022-08-09T10:20:10.926Z,29.31
2022-08-09T10:22:42.161Z,29.44
2022-08-09T10:25:11.806Z,29.53
2022-08-09T10:27:57.308Z,29.61
2022-08-09T10:33:29.511Z,29.65
2022-08-09T10:36:02.168Z,29.58
2022-08-09T10:38:33.706Z,29.59
2022-08-09T10:41:18.710Z,29.70
2022-08-09T10:44:02.052Z,29.88
2022-08-09T10:47:00.876Z,30.11
2022-08-09T10:49:51.793Z,30.34
2022-08-09T10:52:45.402Z,30.36
2022-08-09T10:55:27.050Z,30.32
2022-08-09T10:58:00.539Z,30.36
2022-08-09T11:00:33.152Z,30.50
2022-08-09T11:03:18.064Z,30.67
2022-08-09T11:06:26.017Z,30.82
2022-08-09T11:08:53.822Z,30.93
2022-08-09T11:11:23.213Z,31.16
2022-08-09T11:14:31.692Z,31.17
2022-08-09T11:16:58.876Z,31.16
2022-08-09T11:20:11.383Z,31.24
2022-08-09T11:22:40.998Z,31.44
2022-08-09T11:25:26.143Z,31.52
2022-08-09T11:28:34.074Z,31.59
2022-08-09T11:31:33.725Z,31.46
2022-08-09T11:34:08.405Z,31.49
2022-08-09T11:36:43.500Z,31.56
2022-08-09T11:39:11.332Z,31.72
2022-08-09T11:41:40.510Z,31.94
2022-08-09T11:44:08.716Z,32.17
2022-08-09T11:46:56.948Z,32.37
2022-08-09T11:50:56.868Z,32.42
2022-08-09T11:53:21.302Z,32.52
2022-08-09T11:55:53.343Z,32.58
2022-08-09T11:58:32.284Z,32.60
2022-08-09T12:01:37.590Z,32.56
2022-08-09T12:04:00.609Z,32.53
2022-08-09T12:06:32.449Z,32.67
2022-08-09T12:09:03.040Z,32.71
2022-08-09T12:11:37.869Z,32.75
2022-08-09T12:14:36.898Z,32.98
2022-08-09T12:17:34.479Z,33.21
2022-08-09T12:19:59.353Z,33.17
2022-08-09T12:22:27.365Z,33.20
2022-08-09T12:25:11.869Z,33.27
2022-08-09T12:29:15.118Z,33.46
2022-08-09T12:30:36.703Z,33.70
2022-08-09T12:33:07.369Z,33.76
2022-08-09T12:35:40.768Z,33.75
2022-08-09T12:38:37.875Z,33.75
2022-08-09T12:41:05.478Z,33.67
2022-08-09T12:44:05.981Z,33.83
2022-08-09T12:46:23.660Z,33.99
2022-08-09T12:48:52.178Z,33.98
2022-08-09T12:51:52.828Z,33.85
2022-08-09T12:54:08.515Z,33.76
2022-08-09T12:56:51.029Z,33.78
2022-08-09T12:59:24.464Z,33.83
2022-08-09T13:02:09.621Z,33.81
2022-08-09T13:04:38.783Z,33.84
2022-08-09T13:07:11.232Z,33.87
2022-08-09T13:09:41.020Z,33.95
2022-08-09T13:12:12.185Z,34.04
2022-08-09T13:14:44.099Z,34.09
2022-08-09T13:17:44.457Z,34.02
2022-08-09T13:20:14.123Z,34.01
2022-08-09T13:23:06.139Z,34.11
2022-08-09T13:25:52.973Z,34.02
2022-08-09T13:28:33.858Z,33.96
2022-08-09T13:32:14.334Z,33.86
2022-08-09T13:33:57.246Z,33.73
2022-08-09T13:36:41.384Z,33.78
2022-08-09T13:41:54.255Z,34.13
2022-08-09T13:42:12.674Z,34.50
2022-08-09T13:44:42.767Z,34.76
2022-08-09T13:47:31.106Z,34.97
2022-08-09T13:50:02.990Z,35.06
2022-08-09T13:52:34.973Z,35.24
2022-08-09T13:55:05.069Z,35.31
2022-08-09T13:57:40.488Z,35.48
2022-08-09T14:00:12.528Z,35.80
2022-08-09T14:03:02.089Z,36.00
2022-08-09T14:05:58.352Z,36.36
2022-08-09T14:08:17.553Z,36.57
2022-08-09T14:10:50.556Z,36.82
2022-08-09T14:13:28.267Z,37.15
2022-08-09T14:16:11.036Z,37.79
2022-08-09T14:18:45.194Z,38.22
2022-08-09T14:21:20.431Z,38.64
2022-08-09T14:23:55.144Z,38.38
2022-08-09T14:26:33.549Z,38.25
2022-08-09T14:29:07.923Z,38.42
2022-08-09T14:31:54.233Z,38.76
2022-08-09T14:34:30.773Z,38.84
2022-08-09T14:37:06.863Z,38.49
2022-08-09T14:39:39.944Z,38.73
2022-08-09T14:42:13.095Z,39.20
2022-08-09T14:46:58.036Z,39.73
2022-08-09T14:47:57.562Z,39.89
2022-08-09T14:50:27.329Z,39.95
2022-08-09T14:52:53.986Z,40.01
2022-08-09T14:55:21.420Z,40.39
2022-08-09T14:57:49.413Z,40.79
2022-08-09T15:00:17.407Z,40.92
2022-08-09T15:02:47.425Z,40.81
2022-08-09T15:05:18.309Z,40.86
2022-08-09T15:07:45.565Z,40.92
2022-08-09T15:10:24.960Z,41.24
2022-08-09T15:12:56.398Z,41.28
2022-08-09T15:15:24.821Z,41.07
2022-08-09T15:17:55.516Z,41.28
2022-08-09T15:21:55.589Z,41.34
2022-08-09T15:24:02.151Z,41.40
2022-08-09T15:25:57.466Z,41.28
2022-08-09T15:28:27.850Z,41.39
2022-08-09T15:31:10.140Z,41.67
2022-08-09T15:34:17.546Z,41.79
2022-08-09T15:36:30.010Z,41.97
2022-08-09T15:39:00.769Z,41.94
2022-08-09T15:41:31.720Z,41.81
2022-08-09T15:44:02.018Z,41.86
2022-08-09T15:46:33.350Z,42.03
2022-08-09T15:49:21.595Z,42.29
2022-08-09T15:52:04.367Z,41.97
2022-08-09T15:54:46.219Z,41.35
2022-08-09T15:57:19.076Z,40.68
2022-08-09T16:00:00.465Z,40.80
2022-08-09T16:02:27.473Z,40.70
2022-08-09T16:04:54.244Z,40.79
2022-08-09T16:07:20.951Z,40.87
2022-08-09T16:09:57.696Z,40.83
2022-08-09T16:12:31.245Z,40.90
2022-08-09T16:14:57.918Z,41.15
2022-08-09T16:17:28.865Z,41.37
2022-08-09T16:20:04.503Z,41.45
2022-08-09T16:22:33.047Z,41.40
2022-08-09T16:25:01.429Z,41.19
2022-08-09T16:27:29.653Z,40.37
2022-08-09T16:30:00.681Z,40.35
2022-08-09T16:32:53.231Z,40.52
2022-08-09T16:35:57.142Z,40.44
2022-08-09T16:38:08.192Z,40.69
2022-08-09T16:40:41.141Z,40.61
2022-08-09T16:43:08.875Z,40.49
2022-08-09T16:45:41.596Z,40.46
2022-08-09T16:48:41.701Z,40.49
2022-08-09T16:50:59.011Z,40.58
2022-08-09T16:53:34.267Z,40.48
2022-08-09T16:56:07.599Z,40.30
2022-08-09T16:58:39.786Z,40.15
2022-08-09T17:01:09.202Z,39.94
2022-08-09T17:03:36.398Z,39.65
2022-08-09T17:06:28.176Z,39.59
2022-08-09T17:09:01.748Z,39.18
2022-08-09T17:11:40.855Z,38.41
2022-08-09T17:14:25.857Z,37.59
2022-08-09T17:16:59.782Z,36.79
2022-08-09T17:19:46.630Z,36.06
2022-08-09T17:22:14.422Z,35.41
2022-08-09T17:24:41.452Z,34.92
2022-08-09T17:27:15.187Z,34.48
2022-08-09T17:29:45.549Z,34.06
2022-08-09T17:32:15.864Z,33.66
2022-08-09T17:35:04.223Z,33.38
2022-08-09T17:38:02.576Z,33.16
2022-08-09T17:40:26.176Z,32.98
2022-08-09T17:43:03.261Z,32.82
2022-08-09T17:46:06.422Z,32.67
2022-08-09T17:48:29.427Z,32.51
2022-08-09T17:51:06.477Z,32.39
2022-08-09T17:53:43.304Z,32.22
2022-08-09T17:56:14.903Z,32.09
2022-08-09T17:58:45.069Z,31.97
2022-08-09T18:01:22.386Z,31.88
2022-08-09T18:03:54.688Z,31.77
2022-08-09T18:06:32.471Z,31.67
2022-08-09T18:09:07.858Z,31.56
2022-08-09T18:12:05.059Z,31.47
2022-08-09T18:14:25.915Z,31.37
2022-08-09T18:16:53.296Z,31.28
2022-08-09T18:20:55.889Z,31.21
2022-08-09T18:22:13.157Z,31.09
2022-08-09T18:24:43.690Z,31.02
2022-08-09T18:28:01.959Z,30.92
2022-08-09T18:30:42.269Z,30.84
2022-08-09T18:32:54.126Z,30.74
2022-08-09T18:35:58.023Z,30.65
2022-08-09T18:38:08.555Z,30.59
2022-08-09T18:40:35.585Z,30.54
2022-08-09T18:43:03.692Z,30.43
2022-08-09T18:46:46.670Z,30.34
2022-08-09T18:48:17.678Z,30.24
2022-08-09T18:50:44.730Z,30.16
2022-08-09T18:53:13.381Z,30.06
2022-08-09T18:55:56.321Z,29.96
2022-08-09T18:58:32.132Z,29.83
2022-08-09T19:00:59.477Z,29.71
2022-08-09T19:03:26.904Z,29.58
2022-08-09T19:06:03.106Z,29.42
2022-08-09T19:08:31.511Z,29.25
2022-08-09T19:10:58.334Z,29.06
2022-08-09T19:13:38.768Z,28.89
2022-08-09T19:16:13.077Z,28.69
2022-08-09T19:18:45.729Z,28.51
2022-08-09T19:21:12.752Z,28.42
2022-08-09T19:24:36.231Z,28.35
2022-08-09T19:26:32.291Z,28.32
2022-08-09T19:29:03.218Z,28.27
2022-08-09T19:31:45.657Z,28.19
2022-08-09T19:34:21.607Z,28.12
2022-08-09T19:36:52.887Z,28.05
2022-08-09T19:39:43.045Z,27.99
2022-08-09T19:42:08.238Z,27.91
2022-08-09T19:44:35.540Z,27.88
2022-08-09T19:47:02.679Z,27.86
2022-08-09T19:50:08.175Z,27.84
2022-08-09T19:52:18.121Z,27.78
2022-08-09T19:54:44.987Z,27.74
2022-08-09T19:57:11.562Z,27.63
2022-08-09T19:59:57.862Z,27.52
2022-08-09T20:04:09.924Z,27.37
2022-08-09T20:05:14.867Z,27.22
2022-08-09T20:07:57.193Z,27.06
2022-08-09T20:10:28.016Z,26.93
2022-08-09T20:13:03.053Z,26.88
2022-08-09T20:16:33.354Z,26.80
2022-08-09T20:18:18.840Z,26.70
2022-08-09T20:20:46.930Z,26.65
2022-08-09T20:23:13.616Z,26.59
2022-08-09T20:25:52.244Z,26.54
2022-08-09T20:28:34.134Z,26.51
2022-08-09T20:31:02.914Z,26.48
2022-08-09T20:33:39.140Z,26.43
2022-08-09T20:36:08.914Z,26.34
2022-08-09T20:38:58.760Z,26.25
2022-08-09T20:41:34.691Z,26.19
2022-08-09T20:44:10.122Z,26.14
2022-08-09T20:46:43.073Z,26.05
2022-08-09T20:49:16.083Z,25.93
2022-08-09T20:51:44.242Z,25.83
2022-08-09T20:54:16.720Z,25.74
2022-08-09T20:56:46.748Z,25.65
2022-08-09T20:59:16.723Z,25.56
2022-08-09T21:01:50.511Z,25.47
2022-08-09T21:05:51.579Z,25.38
2022-08-09T21:07:12.375Z,25.30
2022-08-09T21:09:56.808Z,25.24
2022-08-09T21:15:14.139Z,25.12
2022-08-09T21:18:24.158Z,25.07
2022-08-09T21:20:30.314Z,24.98
2022-08-09T21:22:58.647Z,24.98
2022-08-09T21:25:55.422Z,24.91
2022-08-09T21:28:36.463Z,24.82
2022-08-09T21:31:17.322Z,24.73
2022-08-09T21:33:52.142Z,24.70
2022-08-09T21:36:23.020Z,24.78
2022-08-09T21:38:58.066Z,24.82
2022-08-09T21:42:05.929Z,24.85
2022-08-09T21:44:33.080Z,24.85
2022-08-09T21:47:01.920Z,24.83
2022-08-09T21:49:28.513Z,24.82
2022-08-09T21:51:55.056Z,24.81
2022-08-09T21:54:21.789Z,24.79
2022-08-09T21:56:54.657Z,24.77
2022-08-09T21:59:23.413Z,24.74
2022-08-09T22:01:59.001Z,24.69
2022-08-09T22:04:44.790Z,24.62
2022-08-09T22:07:33.804Z,24.58
2022-08-09T22:10:02.101Z,24.53
2022-08-09T22:12:31.300Z,24.52
2022-08-09T22:15:01.520Z,24.44
2022-08-09T22:17:32.118Z,24.48
2022-08-09T22:20:01.265Z,24.48
2022-08-09T22:22:29.060Z,24.46
2022-08-09T22:26:05.335Z,24.42
2022-08-09T22:27:42.380Z,24.37
2022-08-09T22:30:09.802Z,24.36
2022-08-09T22:32:37.643Z,24.32
2022-08-09T22:35:06.722Z,24.30
2022-08-09T22:38:07.107Z,24.25
2022-08-09T22:40:34.436Z,24.14
2022-08-09T22:43:01.294Z,24.09
2022-08-09T22:48:15.881Z,24.01
2022-08-09T22:48:36.094Z,23.93
2022-08-09T22:51:10.805Z,23.86
2022-08-09T22:54:02.607Z,23.78
2022-08-09T22:56:33.892Z,23.75
2022-08-09T22:59:05.845Z,23.76
2022-08-09T23:01:48.687Z,23.77
2022-08-09T23:04:15.295Z,23.77
2022-08-09T23:07:01.660Z,23.74
2022-08-09T23:09:28.342Z,23.73
2022-08-09T23:11:55.104Z,23.72
2022-08-09T23:14:37.410Z,23.67
2022-08-09T23:17:08.441Z,23.63
2022-08-09T23:20:07.442Z,23.59
2022-08-09T23:22:21.687Z,23.54
2022-08-09T23:24:48.625Z,23.49
2022-08-09T23:27:16.004Z,23.47
2022-08-09T23:29:42.597Z,23.43
2022-08-09T23:32:10.067Z,23.41
2022-08-09T23:34:37.587Z,23.38
2022-08-09T23:37:04.992Z,23.37
2022-08-09T23:39:32.311Z,23.38
2022-08-09T23:41:59.310Z,23.36
2022-08-09T23:44:26.082Z,23.32
2022-08-09T23:46:52.928Z,23.26
2022-08-09T23:49:24.995Z,23.13
2022-08-09T23:51:52.327Z,23.14
2022-08-09T23:54:19.844Z,23.08
2022-08-09T23:56:54.149Z,23.11
2022-08-09T23:59:23.201Z,23.14
